createdAt,value
2018-12-15T00:01:44.112Z,22.81
2018-12-15T00:04:15.515Z,22.80
2018-12-15T00:07:02.670Z,22.80
2018-12-15T00:09:32.067Z,22.79
2018-12-15T00:12:01.401Z,22.77
2018-12-15T00:14:30.917Z,22.77
2018-12-15T00:17:05.648Z,22.76
2018-12-15T00:19:31.917Z,22.76
2018-12-15T00:22:01.351Z,22.76
2018-12-15T00:24:30.701Z,22.76
2018-12-15T00:27:00.086Z,22.75
2018-12-15T00:29:29.531Z,22.74
2018-12-15T00:31:58.931Z,22.73
2018-12-15T00:34:28.284Z,22.74
2018-12-15T00:36:57.609Z,22.71
2018-12-15T00:39:26.949Z,22.71
2018-12-15T00:41:56.351Z,22.71
2018-12-15T00:44:25.701Z,22.72
2018-12-15T00:46:55.084Z,22.72
2018-12-15T00:49:24.404Z,22.72
2018-12-15T00:51:53.752Z,22.71
2018-12-15T00:54:23.086Z,22.70
2018-12-15T00:56:52.443Z,22.69
2018-12-15T00:59:43.507Z,22.69
2018-12-15T01:05:31.668Z,22.65
2018-12-15T01:11:20.364Z,22.62
2018-12-15T01:14:11.634Z,22.62
2018-12-15T01:20:10.354Z,22.61
2018-12-15T01:23:03.633Z,22.60
2018-12-15T01:25:53.369Z,22.58
2018-12-15T01:28:42.514Z,22.58
2018-12-15T01:31:30.235Z,22.59
2018-12-15T01:34:25.764Z,22.59
2018-12-15T01:37:32.328Z,22.60
2018-12-15T01:40:30.573Z,22.58
2018-12-15T01:43:18.464Z,22.58
2018-12-15T01:46:04.806Z,22.56
2018-12-15T01:48:57.017Z,22.56
2018-12-15T01:51:40.279Z,22.56
2018-12-15T01:54:34.004Z,22.56
2018-12-15T01:57:11.618Z,22.55
2018-12-15T01:59:59.363Z,22.55
2018-12-15T02:02:54.030Z,22.55
2018-12-15T02:05:40.540Z,22.55
2018-12-15T02:08:37.429Z,22.53
2018-12-15T02:11:25.374Z,22.52
2018-12-15T02:14:30.829Z,22.53
2018-12-15T02:17:24.242Z,22.53
2018-12-15T02:26:41.157Z,22.51
2018-12-15T02:32:31.369Z,22.49
2018-12-15T02:35:26.404Z,22.50
2018-12-15T02:38:36.334Z,22.49
2018-12-15T02:41:35.034Z,22.50
2018-12-15T02:44:24.830Z,22.49
2018-12-15T02:47:08.447Z,22.50
2018-12-15T02:49:57.642Z,22.49
2018-12-15T02:52:56.794Z,22.50
2018-12-15T02:55:54.533Z,22.49
2018-12-15T02:58:48.069Z,22.47
2018-12-15T03:01:49.718Z,22.47
2018-12-15T03:04:30.584Z,22.45
2018-12-15T03:07:42.290Z,22.45
2018-12-15T03:10:37.978Z,22.43
2018-12-15T03:13:15.977Z,22.42
2018-12-15T03:15:50.059Z,22.42
2018-12-15T03:18:27.192Z,22.41
2018-12-15T03:23:39.961Z,22.40
2018-12-15T03:26:10.935Z,22.41
2018-12-15T03:28:41.004Z,22.40
2018-12-15T03:31:10.728Z,22.39
2018-12-15T03:33:40.143Z,22.40
2018-12-15T03:36:11.219Z,22.39
2018-12-15T03:38:42.077Z,22.37
2018-12-15T03:41:11.903Z,22.39
2018-12-15T03:43:45.662Z,22.38
2018-12-15T03:46:15.938Z,22.37
2018-12-15T03:48:47.345Z,22.40
2018-12-15T03:51:17.005Z,22.42
2018-12-15T03:53:46.347Z,22.41
2018-12-15T03:56:15.704Z,22.39
2018-12-15T03:58:45.045Z,22.40
2018-12-15T04:01:14.363Z,22.39
2018-12-15T04:03:43.819Z,22.39
2018-12-15T04:06:13.150Z,22.38
2018-12-15T04:08:44.127Z,22.37
2018-12-15T04:11:13.455Z,22.38
2018-12-15T04:13:42.830Z,22.36
2018-12-15T04:16:12.157Z,22.33
2018-12-15T04:18:41.804Z,22.31
2018-12-15T04:21:11.136Z,22.29
2018-12-15T04:23:40.469Z,22.28
2018-12-15T04:26:09.781Z,22.28
2018-12-15T04:28:39.111Z,22.27
2018-12-15T04:31:08.464Z,22.27
2018-12-15T04:33:37.899Z,22.28
2018-12-15T04:36:17.024Z,22.27
2018-12-15T04:38:46.361Z,22.27
2018-12-15T04:41:15.722Z,22.26
2018-12-15T04:43:45.209Z,22.27
2018-12-15T04:46:14.563Z,22.27
2018-12-15T04:48:43.907Z,22.26
2018-12-15T04:51:13.244Z,22.27
2018-12-15T04:53:42.644Z,22.28
2018-12-15T04:56:12.663Z,22.28
2018-12-15T04:58:41.994Z,22.27
2018-12-15T05:01:11.341Z,22.26
2018-12-15T05:03:40.727Z,22.27
2018-12-15T05:06:10.101Z,22.27
2018-12-15T05:08:39.451Z,22.26
2018-12-15T05:11:09.241Z,22.26
2018-12-15T05:13:38.573Z,22.26
2018-12-15T05:16:07.930Z,22.26
2018-12-15T05:18:37.339Z,22.26
2018-12-15T05:21:06.648Z,22.25
2018-12-15T05:23:35.981Z,22.26
2018-12-15T05:26:05.489Z,22.26
2018-12-15T05:28:34.804Z,22.25
2018-12-15T05:31:04.119Z,22.26
2018-12-15T05:33:33.712Z,22.24
2018-12-15T05:36:03.042Z,22.22
2018-12-15T05:38:32.447Z,22.22
2018-12-15T05:41:01.801Z,22.22
2018-12-15T05:43:31.144Z,22.22
2018-12-15T05:46:00.481Z,22.21
2018-12-15T05:48:29.833Z,22.22
2018-12-15T05:50:59.144Z,22.22
2018-12-15T05:53:28.484Z,22.21
2018-12-15T05:55:57.812Z,22.21
2018-12-15T05:58:27.160Z,22.21
2018-12-15T06:00:56.484Z,22.21
2018-12-15T06:03:25.851Z,22.20
2018-12-15T06:05:55.188Z,22.21
2018-12-15T06:08:24.575Z,22.21
2018-12-15T06:10:53.924Z,22.21
2018-12-15T06:13:23.290Z,22.22
2018-12-15T06:15:52.641Z,22.21
2018-12-15T06:18:22.075Z,22.21
2018-12-15T06:20:51.432Z,22.20
2018-12-15T06:23:20.763Z,22.18
2018-12-15T06:25:50.091Z,22.19
2018-12-15T06:28:19.443Z,22.20
2018-12-15T06:30:48.756Z,22.18
2018-12-15T06:33:18.105Z,22.18
2018-12-15T06:35:47.429Z,22.19
2018-12-15T06:38:16.760Z,22.18
2018-12-15T06:40:46.102Z,22.18
2018-12-15T06:43:15.754Z,22.18
2018-12-15T06:45:45.664Z,22.15
2018-12-15T06:48:15.097Z,22.12
2018-12-15T06:50:44.423Z,22.11
2018-12-15T06:53:13.752Z,22.11
2018-12-15T06:55:44.020Z,22.11
2018-12-15T06:58:13.344Z,22.13
2018-12-15T07:00:42.680Z,22.11
2018-12-15T07:03:12.015Z,22.10
2018-12-15T07:05:41.372Z,22.11
2018-12-15T07:08:10.699Z,22.12
2018-12-15T07:10:40.045Z,22.12
2018-12-15T07:13:09.386Z,22.13
2018-12-15T07:15:38.747Z,22.12
2018-12-15T07:18:08.067Z,22.13
2018-12-15T07:20:37.419Z,22.15
2018-12-15T07:23:06.748Z,22.15
2018-12-15T07:25:37.492Z,22.15
2018-12-15T07:28:06.820Z,22.16
2018-12-15T07:30:36.211Z,22.16
2018-12-15T07:33:05.541Z,22.17
2018-12-15T07:35:34.907Z,22.17
2018-12-15T07:38:04.247Z,22.18
2018-12-15T07:40:33.698Z,22.18
2018-12-15T07:43:03.043Z,22.19
2018-12-15T07:45:32.368Z,22.20
2018-12-15T07:48:01.732Z,22.20
2018-12-15T07:50:31.043Z,22.22
2018-12-15T07:53:00.389Z,22.22
2018-12-15T07:55:29.722Z,22.23
2018-12-15T07:57:59.076Z,22.23
2018-12-15T08:00:28.404Z,22.24
2018-12-15T08:02:57.756Z,22.23
2018-12-15T08:05:27.100Z,22.25
2018-12-15T08:07:56.516Z,22.26
2018-12-15T08:10:25.831Z,22.26
2018-12-15T08:13:00.552Z,22.27
2018-12-15T08:15:29.928Z,22.29
2018-12-15T08:17:59.276Z,22.27
2018-12-15T08:20:28.616Z,22.28
2018-12-15T08:22:57.987Z,22.29
2018-12-15T08:25:27.429Z,22.29
2018-12-15T08:27:56.819Z,22.30
2018-12-15T08:30:26.302Z,22.30
2018-12-15T08:32:55.677Z,22.31
2018-12-15T08:35:25.025Z,22.31
2018-12-15T08:37:54.645Z,22.32
2018-12-15T08:40:23.992Z,22.33
2018-12-15T08:42:53.324Z,22.34
2018-12-15T08:45:22.795Z,22.34
2018-12-15T08:47:52.176Z,22.35
2018-12-15T08:50:21.499Z,22.36
2018-12-15T08:52:50.811Z,22.36
2018-12-15T08:55:20.224Z,22.36
2018-12-15T08:57:49.568Z,22.36
2018-12-15T09:00:18.900Z,22.38
2018-12-15T09:02:48.240Z,22.39
2018-12-15T09:05:17.567Z,22.39
2018-12-15T09:07:46.896Z,22.39
2018-12-15T09:10:16.243Z,22.39
2018-12-15T09:12:45.559Z,22.41
2018-12-15T09:15:14.892Z,22.41
2018-12-15T09:17:44.228Z,22.42
2018-12-15T09:20:13.559Z,22.42
2018-12-15T09:22:42.900Z,22.42
2018-12-15T09:25:12.385Z,22.43
2018-12-15T09:27:41.892Z,22.44
2018-12-15T09:30:11.269Z,22.44
2018-12-15T09:32:40.645Z,22.44
2018-12-15T09:35:09.996Z,22.45
2018-12-15T09:37:39.330Z,22.45
2018-12-15T09:40:09.477Z,22.45
2018-12-15T09:42:38.803Z,22.45
2018-12-15T09:45:08.135Z,22.47
2018-12-15T09:47:37.500Z,22.46
2018-12-15T09:50:06.841Z,22.47
2018-12-15T09:52:36.180Z,22.47
2018-12-15T09:55:05.715Z,22.48
2018-12-15T09:57:35.101Z,22.48
2018-12-15T10:00:04.687Z,22.49
2018-12-15T10:02:34.063Z,22.49
2018-12-15T10:05:03.440Z,22.50
2018-12-15T10:07:32.786Z,22.50
2018-12-15T10:10:02.121Z,22.50
2018-12-15T10:12:32.706Z,22.50
2018-12-15T10:15:02.028Z,22.51
2018-12-15T10:17:31.384Z,22.50
2018-12-15T10:20:00.707Z,22.51
2018-12-15T10:22:30.080Z,22.51
2018-12-15T10:24:59.456Z,22.51
2018-12-15T10:27:28.824Z,22.53
2018-12-15T10:30:03.232Z,22.53
2018-12-15T10:32:37.668Z,22.53
2018-12-15T10:35:07.484Z,22.53
2018-12-15T10:37:36.855Z,22.53
2018-12-15T10:40:06.372Z,22.54
2018-12-15T10:42:35.734Z,22.54
2018-12-15T10:45:05.211Z,22.55
2018-12-15T10:47:34.528Z,22.54
2018-12-15T10:50:03.909Z,22.54
2018-12-15T10:52:34.276Z,22.55
2018-12-15T10:55:03.735Z,22.56
2018-12-15T10:57:33.065Z,22.56
2018-12-15T11:00:02.433Z,22.56
2018-12-15T11:02:32.888Z,22.56
2018-12-15T11:05:02.456Z,22.57
2018-12-15T11:07:31.861Z,22.57
2018-12-15T11:10:01.244Z,22.58
2018-12-15T11:12:32.372Z,22.58
2018-12-15T11:15:02.946Z,22.59
2018-12-15T11:17:34.385Z,22.59
2018-12-15T11:20:04.883Z,22.59
2018-12-15T11:22:34.745Z,22.59
2018-12-15T11:25:05.645Z,22.59
2018-12-15T11:27:35.771Z,22.60
2018-12-15T11:30:06.109Z,22.61
2018-12-15T11:32:35.444Z,22.61
2018-12-15T11:35:04.887Z,22.61
2018-12-15T11:37:34.223Z,22.61
2018-12-15T11:40:03.588Z,22.61
2018-12-15T11:42:32.916Z,22.62
2018-12-15T11:45:02.453Z,22.62
2018-12-15T11:47:32.900Z,22.63
2018-12-15T11:50:02.267Z,22.61
2018-12-15T11:52:31.614Z,22.62
2018-12-15T11:55:00.932Z,22.61
2018-12-15T11:57:31.040Z,22.62
2018-12-15T12:00:00.861Z,22.62
2018-12-15T12:02:32.022Z,22.62
2018-12-15T12:05:01.603Z,22.62
2018-12-15T12:07:31.983Z,22.63
2018-12-15T12:10:02.324Z,22.66
2018-12-15T12:12:31.929Z,22.66
2018-12-15T12:15:01.344Z,22.67
2018-12-15T12:17:31.744Z,22.68
2018-12-15T12:20:02.927Z,22.69
2018-12-15T12:22:32.348Z,22.71
2018-12-15T12:25:01.709Z,22.71
2018-12-15T12:27:33.076Z,22.72
2018-12-15T12:30:02.844Z,22.72
2018-12-15T12:32:33.648Z,22.73
2018-12-15T12:35:02.975Z,22.73
2018-12-15T12:37:32.313Z,22.74
2018-12-15T12:40:01.624Z,22.76
2018-12-15T12:42:32.112Z,22.76
2018-12-15T12:45:01.435Z,22.77
2018-12-15T12:47:30.774Z,22.78
2018-12-15T12:50:00.240Z,22.78
2018-12-15T12:52:31.060Z,22.80
2018-12-15T12:55:01.024Z,22.80
2018-12-15T12:57:30.457Z,22.80
2018-12-15T12:59:59.988Z,22.80
2018-12-15T13:02:29.373Z,22.80
2018-12-15T13:04:59.754Z,22.81
2018-12-15T13:07:29.120Z,22.83
2018-12-15T13:09:58.451Z,22.83
2018-12-15T13:12:28.672Z,22.83
2018-12-15T13:14:58.109Z,22.85
2018-12-15T13:17:27.448Z,22.86
2018-12-15T13:20:03.461Z,22.85
2018-12-15T13:22:28.128Z,22.85
2018-12-15T13:24:57.478Z,22.86
2018-12-15T13:27:26.956Z,22.88
2018-12-15T13:29:56.319Z,22.87
2018-12-15T13:32:25.655Z,22.86
2018-12-15T13:34:55.014Z,22.88
2018-12-15T13:37:24.359Z,22.86
2018-12-15T13:39:53.735Z,22.86
2018-12-15T13:42:23.114Z,22.88
2018-12-15T13:44:52.536Z,22.89
2018-12-15T13:47:21.888Z,22.87
2018-12-15T13:49:51.322Z,22.89
2018-12-15T13:52:20.679Z,22.90
2018-12-15T13:54:50.082Z,22.89
2018-12-15T13:57:19.727Z,22.90
2018-12-15T13:59:49.071Z,22.89
2018-12-15T14:02:18.688Z,22.90
2018-12-15T14:04:48.080Z,22.90
2018-12-15T14:07:17.452Z,22.91
2018-12-15T14:09:46.873Z,22.91
2018-12-15T14:12:16.244Z,22.93
2018-12-15T14:14:45.592Z,22.92
2018-12-15T14:17:17.001Z,22.90
2018-12-15T14:19:46.596Z,22.89
2018-12-15T14:22:15.940Z,22.89
2018-12-15T14:24:45.299Z,22.89
2018-12-15T14:27:14.662Z,22.89
2018-12-15T14:29:43.984Z,22.88
2018-12-15T14:32:13.416Z,22.87
2018-12-15T14:34:42.747Z,22.87
2018-12-15T14:37:12.157Z,22.85
2018-12-15T14:39:41.630Z,22.86
2018-12-15T14:42:11.068Z,22.85
2018-12-15T14:44:46.760Z,22.85
2018-12-15T14:47:16.165Z,22.84
2018-12-15T14:49:45.547Z,22.85
2018-12-15T14:52:14.975Z,22.83
2018-12-15T14:54:44.324Z,22.84
2018-12-15T14:57:16.783Z,22.84
2018-12-15T14:59:46.173Z,22.84
2018-12-15T15:02:15.544Z,22.85
2018-12-15T15:04:45.152Z,22.83
2018-12-15T15:07:14.576Z,22.84
2018-12-15T15:09:43.927Z,22.83
2018-12-15T15:12:13.346Z,22.84
2018-12-15T15:14:49.064Z,22.83
2018-12-15T15:17:18.473Z,22.83
2018-12-15T15:19:47.901Z,22.84
2018-12-15T15:22:17.294Z,22.83
2018-12-15T15:24:46.759Z,22.83
2018-12-15T15:27:16.111Z,22.82
2018-12-15T15:29:45.425Z,22.81
2018-12-15T15:32:14.771Z,22.81
2018-12-15T15:34:44.139Z,22.81
2018-12-15T15:37:13.488Z,22.81
2018-12-15T15:39:43.445Z,22.81
2018-12-15T15:42:13.913Z,22.80
2018-12-15T15:44:43.554Z,22.81
2018-12-15T15:47:12.972Z,22.82
2018-12-15T15:49:42.370Z,22.80
2018-12-15T15:52:11.740Z,22.81
2018-12-15T15:54:41.095Z,22.83
2018-12-15T15:57:11.678Z,22.88
2018-12-15T15:59:41.376Z,22.89
2018-12-15T16:02:10.749Z,22.89
2018-12-15T16:04:40.152Z,22.87
2018-12-15T16:07:09.624Z,22.87
2018-12-15T16:09:44.765Z,22.86
2018-12-15T16:12:10.403Z,22.86
2018-12-15T16:14:39.783Z,22.85
2018-12-15T16:17:09.152Z,22.83
2018-12-15T16:19:38.498Z,22.82
2018-12-15T16:22:08.865Z,22.83
2018-12-15T16:24:38.242Z,22.83
2018-12-15T16:27:07.595Z,22.81
2018-12-15T16:29:36.932Z,22.81
2018-12-15T16:32:07.603Z,22.81
2018-12-15T16:34:36.951Z,22.83
2018-12-15T16:37:10.074Z,22.82
2018-12-15T16:39:39.395Z,22.83
2018-12-15T16:42:08.751Z,22.82
2018-12-15T16:44:38.096Z,22.83
2018-12-15T16:47:14.097Z,22.84
2018-12-15T16:49:43.411Z,22.83
2018-12-15T16:52:12.760Z,22.83
2018-12-15T16:54:42.124Z,22.84
2018-12-15T16:57:11.485Z,22.84
2018-12-15T16:59:40.852Z,22.83
2018-12-15T17:02:10.253Z,22.85
2018-12-15T17:04:39.703Z,22.85
2018-12-15T17:07:09.061Z,22.83
2018-12-15T17:09:38.388Z,22.83
2018-12-15T17:12:07.744Z,22.83
2018-12-15T17:14:37.091Z,22.84
2018-12-15T17:17:06.476Z,22.85
2018-12-15T17:19:35.804Z,22.84
2018-12-15T17:22:05.164Z,22.84
2018-12-15T17:24:35.528Z,22.83
2018-12-15T17:27:04.903Z,22.83
2018-12-15T17:29:34.253Z,22.83
2018-12-15T17:32:03.718Z,22.83
2018-12-15T17:34:33.067Z,22.83
2018-12-15T17:37:02.449Z,22.83
2018-12-15T17:39:31.948Z,22.81
2018-12-15T17:42:01.320Z,22.80
2018-12-15T17:44:30.677Z,22.80
2018-12-15T17:47:00.013Z,22.81
2018-12-15T17:49:29.376Z,22.80
2018-12-15T17:51:58.736Z,22.82
2018-12-15T17:54:28.101Z,22.81
2018-12-15T17:56:57.516Z,22.82
2018-12-15T17:59:27.504Z,22.84
2018-12-15T18:01:57.742Z,22.85
2018-12-15T18:04:27.131Z,22.85
2018-12-15T18:06:56.556Z,22.86
2018-12-15T18:09:25.932Z,22.85
2018-12-15T18:11:55.293Z,22.84
2018-12-15T18:14:24.922Z,22.83
2018-12-15T18:16:54.257Z,22.83
2018-12-15T18:19:23.872Z,22.84
2018-12-15T18:21:53.253Z,22.85
2018-12-15T18:24:22.624Z,22.86
2018-12-15T18:26:52.279Z,22.83
2018-12-15T18:29:22.415Z,22.84
2018-12-15T18:31:51.824Z,22.85
2018-12-15T18:34:21.292Z,22.83
2018-12-15T18:36:50.672Z,22.83
2018-12-15T18:39:20.047Z,22.80
2018-12-15T18:41:49.396Z,22.80
2018-12-15T18:44:18.779Z,22.80
2018-12-15T18:46:48.267Z,22.79
2018-12-15T18:49:17.631Z,22.79
2018-12-15T18:51:48.048Z,22.79
2018-12-15T18:54:17.480Z,22.81
2018-12-15T18:56:47.589Z,22.80
2018-12-15T18:59:17.215Z,22.81
2018-12-15T19:01:47.645Z,22.80
2018-12-15T19:04:17.072Z,22.80
2018-12-15T19:06:46.504Z,22.80
2018-12-15T19:09:17.071Z,22.79
2018-12-15T19:11:46.448Z,22.81
2018-12-15T19:14:15.860Z,22.80
2018-12-15T19:16:45.252Z,22.80
2018-12-15T19:19:15.821Z,22.80
2018-12-15T19:21:45.185Z,22.81
2018-12-15T19:24:14.657Z,22.81
2018-12-15T19:26:44.046Z,22.82
2018-12-15T19:29:13.402Z,22.77
2018-12-15T19:31:42.840Z,22.76
2018-12-15T19:34:17.447Z,22.74
2018-12-15T19:36:44.818Z,22.74
2018-12-15T19:39:14.186Z,22.74
2018-12-15T19:41:43.609Z,22.75
2018-12-15T19:44:13.049Z,22.77
2018-12-15T19:46:42.415Z,22.76
2018-12-15T19:49:12.304Z,22.79
2018-12-15T19:51:41.844Z,22.79
2018-12-15T19:54:11.183Z,22.80
2018-12-15T19:56:40.552Z,22.83
2018-12-15T19:59:14.301Z,22.83
2018-12-15T20:01:44.444Z,22.82
2018-12-15T20:04:13.852Z,22.83
2018-12-15T20:06:43.177Z,22.86
2018-12-15T20:09:12.559Z,22.87
2018-12-15T20:11:41.930Z,22.87
2018-12-15T20:14:11.368Z,22.85
2018-12-15T20:16:40.752Z,22.84
2018-12-15T20:19:10.136Z,22.83
2018-12-15T20:21:39.528Z,22.83
2018-12-15T20:24:09.831Z,22.83
2018-12-15T20:26:39.160Z,22.83
2018-12-15T20:29:08.503Z,22.83
2018-12-15T20:31:37.844Z,22.83
2018-12-15T20:34:07.253Z,22.83
2018-12-15T20:36:37.200Z,22.83
2018-12-15T20:39:07.948Z,22.83
2018-12-15T20:41:37.320Z,22.83
2018-12-15T20:44:06.665Z,22.83
2018-12-15T20:46:36.018Z,22.85
2018-12-15T20:49:05.364Z,22.85
2018-12-15T20:51:34.695Z,22.84
2018-12-15T20:54:04.065Z,22.85
2018-12-15T20:56:33.397Z,22.85
2018-12-15T20:59:02.732Z,22.85
2018-12-15T21:01:32.122Z,22.85
2018-12-15T21:04:01.456Z,22.85
2018-12-15T21:06:31.844Z,22.86
2018-12-15T21:09:01.179Z,22.86
2018-12-15T21:11:31.673Z,22.87
2018-12-15T21:14:01.004Z,22.87
2018-12-15T21:16:30.367Z,22.88
2018-12-15T21:18:59.704Z,22.88
2018-12-15T21:21:29.149Z,22.88
2018-12-15T21:23:58.508Z,22.88
2018-12-15T21:26:27.876Z,22.88
2018-12-15T21:28:57.204Z,22.89
2018-12-15T21:31:26.569Z,22.91
2018-12-15T21:33:55.916Z,22.90
2018-12-15T21:36:25.268Z,22.91
2018-12-15T21:38:54.602Z,22.91
2018-12-15T21:41:24.127Z,22.92
2018-12-15T21:43:53.473Z,22.92
2018-12-15T21:46:22.843Z,22.93
2018-12-15T21:48:52.176Z,22.92
2018-12-15T21:51:21.548Z,22.92
2018-12-15T21:53:50.889Z,22.93
2018-12-15T21:56:20.292Z,22.93
2018-12-15T21:58:49.623Z,22.93
2018-12-15T22:01:19.009Z,22.95
2018-12-15T22:03:48.344Z,22.95
2018-12-15T22:06:17.968Z,22.94
2018-12-15T22:08:47.297Z,22.95
2018-12-15T22:11:16.640Z,22.95
2018-12-15T22:13:45.991Z,22.95
2018-12-15T22:16:15.336Z,22.96
2018-12-15T22:18:44.673Z,22.95
2018-12-15T22:21:14.016Z,22.97
2018-12-15T22:23:43.395Z,22.96
2018-12-15T22:26:12.729Z,22.95
2018-12-15T22:28:42.072Z,22.95
2018-12-15T22:31:11.395Z,22.94
2018-12-15T22:33:40.763Z,22.93
2018-12-15T22:36:10.104Z,22.93
2018-12-15T22:38:39.610Z,22.92
2018-12-15T22:41:08.983Z,22.93
2018-12-15T22:43:38.371Z,22.91
2018-12-15T22:46:07.692Z,22.92
2018-12-15T22:48:37.054Z,22.92
2018-12-15T22:51:06.407Z,22.92
2018-12-15T22:53:35.767Z,22.93
2018-12-15T22:56:05.111Z,22.92
2018-12-15T22:58:34.468Z,22.91
2018-12-15T23:01:12.097Z,22.91
2018-12-15T23:03:43.501Z,22.91
2018-12-15T23:06:12.858Z,22.90
2018-12-15T23:08:42.216Z,22.89
2018-12-15T23:11:11.547Z,22.89
2018-12-15T23:13:40.896Z,22.88
2018-12-15T23:16:10.235Z,22.87
2018-12-15T23:18:40.606Z,22.86
2018-12-15T23:21:09.944Z,22.86
2018-12-15T23:23:39.280Z,22.86
2018-12-15T23:26:08.633Z,22.86
2018-12-15T23:28:37.979Z,22.86
2018-12-15T23:31:07.328Z,22.85
2018-12-15T23:33:36.832Z,22.85
2018-12-15T23:36:06.172Z,22.83
2018-12-15T23:38:35.528Z,22.83
2018-12-15T23:41:04.851Z,22.84
2018-12-15T23:43:34.193Z,22.83
2018-12-15T23:46:03.552Z,22.83
2018-12-15T23:48:32.889Z,22.81
2018-12-15T23:51:02.243Z,22.80
2018-12-15T23:53:31.587Z,22.80
2018-12-15T23:56:00.944Z,22.81
2018-12-15T23:58:30.299Z,22.80
